sensor_id;sensor_type;location;lat;lon;timestamp;P1;durP1;ratioP1;P2;durP2;ratioP2
41305;SDS011;27051;50.376;19.152;2022-12-18T00:01:12;46.83;;;18.95;;
41305;SDS011;27051;50.376;19.152;2022-12-18T00:03:54;50.08;;;21.48;;
41305;SDS011;27051;50.376;19.152;2022-12-18T00:06:21;48.97;;;20.73;;
41305;SDS011;27051;50.376;19.152;2022-12-18T00:08:48;52.58;;;22.10;;
41305;SDS011;27051;50.376;19.152;2022-12-18T00:11:15;50.37;;;20.33;;
41305;SDS011;27051;50.376;19.152;2022-12-18T00:13:46;49.08;;;21.95;;
41305;SDS011;27051;50.376;19.152;2022-12-18T00:16:19;51.70;;;21.15;;
41305;SDS011;27051;50.376;19.152;2022-12-18T00:18:48;51.63;;;22.40;;
41305;SDS011;27051;50.376;19.152;2022-12-18T00:21:16;51.90;;;21.02;;
41305;SDS011;27051;50.376;19.152;2022-12-18T00:23:45;54.70;;;22.62;;
41305;SDS011;27051;50.376;19.152;2022-12-18T00:26:13;56.08;;;23.92;;
41305;SDS011;27051;50.376;19.152;2022-12-18T00:28:45;46.27;;;20.90;;
41305;SDS011;27051;50.376;19.152;2022-12-18T00:31:12;55.88;;;25.15;;
41305;SDS011;27051;50.376;19.152;2022-12-18T00:33:41;56.67;;;23.33;;
41305;SDS011;27051;50.376;19.152;2022-12-18T00:36:08;50.33;;;21.63;;
41305;SDS011;27051;50.376;19.152;2022-12-18T00:38:38;58.98;;;23.95;;
41305;SDS011;27051;50.376;19.152;2022-12-18T00:41:04;55.83;;;22.13;;
41305;SDS011;27051;50.376;19.152;2022-12-18T00:43:30;57.15;;;22.60;;
41305;SDS011;27051;50.376;19.152;2022-12-18T00:45:56;63.83;;;24.40;;
41305;SDS011;27051;50.376;19.152;2022-12-18T00:48:22;61.33;;;24.80;;
41305;SDS011;27051;50.376;19.152;2022-12-18T00:50:48;62.07;;;24.37;;
41305;SDS011;27051;50.376;19.152;2022-12-18T00:53:15;65.67;;;26.57;;
41305;SDS011;27051;50.376;19.152;2022-12-18T00:55:41;57.97;;;22.77;;
41305;SDS011;27051;50.376;19.152;2022-12-18T00:58:19;65.92;;;26.02;;
41305;SDS011;27051;50.376;19.152;2022-12-18T01:00:44;64.37;;;26.60;;
41305;SDS011;27051;50.376;19.152;2022-12-18T01:03:12;61.73;;;26.57;;
41305;SDS011;27051;50.376;19.152;2022-12-18T01:05:40;63.02;;;27.22;;
41305;SDS011;27051;50.376;19.152;2022-12-18T01:08:07;63.68;;;28.02;;
41305;SDS011;27051;50.376;19.152;2022-12-18T01:10:32;68.50;;;24.77;;
41305;SDS011;27051;50.376;19.152;2022-12-18T01:12:58;62.20;;;26.63;;
41305;SDS011;27051;50.376;19.152;2022-12-18T01:15:24;61.35;;;24.60;;
41305;SDS011;27051;50.376;19.152;2022-12-18T01:17:51;61.50;;;24.30;;
41305;SDS011;27051;50.376;19.152;2022-12-18T01:20:18;61.95;;;25.77;;
41305;SDS011;27051;50.376;19.152;2022-12-18T01:22:43;59.90;;;24.27;;
41305;SDS011;27051;50.376;19.152;2022-12-18T01:25:09;67.60;;;26.53;;
41305;SDS011;27051;50.376;19.152;2022-12-18T01:27:35;63.30;;;26.93;;
41305;SDS011;27051;50.376;19.152;2022-12-18T01:30:01;66.93;;;26.03;;
41305;SDS011;27051;50.376;19.152;2022-12-18T01:32:29;68.30;;;25.40;;
41305;SDS011;27051;50.376;19.152;2022-12-18T01:34:55;75.83;;;30.82;;
41305;SDS011;27051;50.376;19.152;2022-12-18T01:37:21;72.60;;;28.57;;
41305;SDS011;27051;50.376;19.152;2022-12-18T01:39:46;71.55;;;29.42;;
41305;SDS011;27051;50.376;19.152;2022-12-18T01:42:13;72.50;;;28.43;;
41305;SDS011;27051;50.376;19.152;2022-12-18T01:52:52;69.17;;;26.82;;
41305;SDS011;27051;50.376;19.152;2022-12-18T01:55:49;70.50;;;24.07;;
41305;SDS011;27051;50.376;19.152;2022-12-18T01:58:19;63.40;;;24.65;;
41305;SDS011;27051;50.376;19.152;2022-12-18T02:00:48;63.20;;;27.03;;
41305;SDS011;27051;50.376;19.152;2022-12-18T02:03:14;66.77;;;27.30;;
41305;SDS011;27051;50.376;19.152;2022-12-18T02:05:47;64.50;;;26.93;;
41305;SDS011;27051;50.376;19.152;2022-12-18T02:11:34;63.60;;;24.12;;
41305;SDS011;27051;50.376;19.152;2022-12-18T02:14:38;72.72;;;25.43;;
41305;SDS011;27051;50.376;19.152;2022-12-18T02:17:00;65.95;;;29.25;;
41305;SDS011;27051;50.376;19.152;2022-12-18T02:19:55;62.87;;;27.33;;
41305;SDS011;27051;50.376;19.152;2022-12-18T02:25:51;65.10;;;25.43;;
41305;SDS011;27051;50.376;19.152;2022-12-18T02:28:41;66.33;;;27.10;;
41305;SDS011;27051;50.376;19.152;2022-12-18T02:31:14;64.75;;;26.90;;
41305;SDS011;27051;50.376;19.152;2022-12-18T02:33:45;59.83;;;24.50;;
41305;SDS011;27051;50.376;19.152;2022-12-18T02:36:12;67.55;;;26.60;;
41305;SDS011;27051;50.376;19.152;2022-12-18T02:38:41;64.95;;;26.80;;
41305;SDS011;27051;50.376;19.152;2022-12-18T02:41:09;64.67;;;25.43;;
41305;SDS011;27051;50.376;19.152;2022-12-18T02:43:36;65.28;;;25.55;;
41305;SDS011;27051;50.376;19.152;2022-12-18T02:46:20;64.73;;;27.27;;
41305;SDS011;27051;50.376;19.152;2022-12-18T02:48:59;57.15;;;25.68;;
41305;SDS011;27051;50.376;19.152;2022-12-18T02:51:39;69.27;;;26.40;;
41305;SDS011;27051;50.376;19.152;2022-12-18T02:54:16;69.90;;;28.80;;
41305;SDS011;27051;50.376;19.152;2022-12-18T02:56:50;65.83;;;25.90;;
41305;SDS011;27051;50.376;19.152;2022-12-18T02:59:21;68.83;;;26.17;;
41305;SDS011;27051;50.376;19.152;2022-12-18T03:01:52;66.77;;;26.65;;
41305;SDS011;27051;50.376;19.152;2022-12-18T03:04:25;72.03;;;28.62;;
41305;SDS011;27051;50.376;19.152;2022-12-18T03:07:05;70.03;;;28.73;;
41305;SDS011;27051;50.376;19.152;2022-12-18T03:09:36;63.40;;;26.15;;
41305;SDS011;27051;50.376;19.152;2022-12-18T03:17:34;67.10;;;25.95;;
41305;SDS011;27051;50.376;19.152;2022-12-18T03:20:03;68.97;;;26.90;;
41305;SDS011;27051;50.376;19.152;2022-12-18T03:22:33;64.15;;;25.12;;
41305;SDS011;27051;50.376;19.152;2022-12-18T03:25:01;69.85;;;26.30;;
41305;SDS011;27051;50.376;19.152;2022-12-18T03:27:31;67.30;;;25.82;;
41305;SDS011;27051;50.376;19.152;2022-12-18T03:30:03;66.10;;;28.17;;
41305;SDS011;27051;50.376;19.152;2022-12-18T03:32:43;71.85;;;29.65;;
41305;SDS011;27051;50.376;19.152;2022-12-18T03:35:19;65.67;;;26.82;;
41305;SDS011;27051;50.376;19.152;2022-12-18T03:40:13;64.00;;;25.87;;
41305;SDS011;27051;50.376;19.152;2022-12-18T03:42:43;73.67;;;25.97;;
41305;SDS011;27051;50.376;19.152;2022-12-18T03:51:00;81.02;;;32.58;;
41305;SDS011;27051;50.376;19.152;2022-12-18T03:53:38;77.93;;;32.17;;
41305;SDS011;27051;50.376;19.152;2022-12-18T03:56:07;79.12;;;30.30;;
41305;SDS011;27051;50.376;19.152;2022-12-18T03:58:35;61.63;;;26.02;;
41305;SDS011;27051;50.376;19.152;2022-12-18T04:01:04;67.25;;;27.22;;
41305;SDS011;27051;50.376;19.152;2022-12-18T04:03:33;68.12;;;27.32;;
41305;SDS011;27051;50.376;19.152;2022-12-18T04:06:00;60.70;;;24.20;;
41305;SDS011;27051;50.376;19.152;2022-12-18T04:08:27;64.90;;;24.12;;
41305;SDS011;27051;50.376;19.152;2022-12-18T04:10:54;69.05;;;27.73;;
41305;SDS011;27051;50.376;19.152;2022-12-18T04:13:29;76.57;;;30.77;;
41305;SDS011;27051;50.376;19.152;2022-12-18T04:15:58;67.57;;;25.67;;
41305;SDS011;27051;50.376;19.152;2022-12-18T04:18:24;71.83;;;27.60;;
41305;SDS011;27051;50.376;19.152;2022-12-18T04:20:49;67.87;;;25.83;;
41305;SDS011;27051;50.376;19.152;2022-12-18T04:23:15;68.73;;;27.60;;
41305;SDS011;27051;50.376;19.152;2022-12-18T04:25:41;60.15;;;24.77;;
41305;SDS011;27051;50.376;19.152;2022-12-18T04:28:06;60.97;;;25.30;;
41305;SDS011;27051;50.376;19.152;2022-12-18T04:30:32;65.37;;;24.25;;
41305;SDS011;27051;50.376;19.152;2022-12-18T04:32:58;62.70;;;25.00;;
41305;SDS011;27051;50.376;19.152;2022-12-18T04:35:24;65.77;;;26.17;;
41305;SDS011;27051;50.376;19.152;2022-12-18T04:37:49;64.67;;;26.47;;
41305;SDS011;27051;50.376;19.152;2022-12-18T04:40:15;71.87;;;28.10;;
41305;SDS011;27051;50.376;19.152;2022-12-18T04:42:41;80.10;;;29.33;;
41305;SDS011;27051;50.376;19.152;2022-12-18T04:45:07;70.77;;;26.10;;
41305;SDS011;27051;50.376;19.152;2022-12-18T04:47:33;69.42;;;27.10;;
41305;SDS011;27051;50.376;19.152;2022-12-18T04:49:59;73.37;;;27.30;;
41305;SDS011;27051;50.376;19.152;2022-12-18T04:52:24;82.97;;;30.20;;
41305;SDS011;27051;50.376;19.152;2022-12-18T04:54:51;65.07;;;27.53;;
41305;SDS011;27051;50.376;19.152;2022-12-18T04:57:16;76.00;;;28.57;;
41305;SDS011;27051;50.376;19.152;2022-12-18T04:59:42;66.97;;;25.43;;
41305;SDS011;27051;50.376;19.152;2022-12-18T05:02:07;60.07;;;24.10;;
41305;SDS011;27051;50.376;19.152;2022-12-18T05:04:33;63.63;;;23.57;;
41305;SDS011;27051;50.376;19.152;2022-12-18T05:06:59;59.33;;;25.37;;
41305;SDS011;27051;50.376;19.152;2022-12-18T05:09:24;64.03;;;25.47;;
41305;SDS011;27051;50.376;19.152;2022-12-18T05:11:50;61.85;;;22.52;;
41305;SDS011;27051;50.376;19.152;2022-12-18T05:14:16;67.50;;;25.60;;
41305;SDS011;27051;50.376;19.152;2022-12-18T05:16:41;71.00;;;26.40;;
41305;SDS011;27051;50.376;19.152;2022-12-18T05:19:07;63.50;;;24.07;;
41305;SDS011;27051;50.376;19.152;2022-12-18T05:21:33;53.53;;;20.77;;
41305;SDS011;27051;50.376;19.152;2022-12-18T05:23:58;60.80;;;23.73;;
41305;SDS011;27051;50.376;19.152;2022-12-18T05:26:24;57.50;;;23.47;;
41305;SDS011;27051;50.376;19.152;2022-12-18T05:28:50;57.50;;;21.55;;
41305;SDS011;27051;50.376;19.152;2022-12-18T05:31:15;62.77;;;25.53;;
41305;SDS011;27051;50.376;19.152;2022-12-18T05:33:41;55.38;;;22.02;;
41305;SDS011;27051;50.376;19.152;2022-12-18T05:36:07;55.83;;;25.35;;
41305;SDS011;27051;50.376;19.152;2022-12-18T05:38:35;63.15;;;26.42;;
41305;SDS011;27051;50.376;19.152;2022-12-18T05:41:03;61.20;;;25.88;;
41305;SDS011;27051;50.376;19.152;2022-12-18T05:43:29;68.37;;;28.50;;
41305;SDS011;27051;50.376;19.152;2022-12-18T05:45:55;76.13;;;31.00;;
41305;SDS011;27051;50.376;19.152;2022-12-18T05:48:21;75.27;;;29.10;;
41305;SDS011;27051;50.376;19.152;2022-12-18T05:50:48;75.47;;;32.70;;
41305;SDS011;27051;50.376;19.152;2022-12-18T05:53:16;77.58;;;32.38;;
41305;SDS011;27051;50.376;19.152;2022-12-18T05:55:44;93.83;;;40.40;;
41305;SDS011;27051;50.376;19.152;2022-12-18T05:58:11;93.73;;;38.93;;
41305;SDS011;27051;50.376;19.152;2022-12-18T06:00:39;97.95;;;39.58;;
41305;SDS011;27051;50.376;19.152;2022-12-18T06:03:09;109.42;;;44.03;;
41305;SDS011;27051;50.376;19.152;2022-12-18T06:05:36;98.65;;;39.58;;
41305;SDS011;27051;50.376;19.152;2022-12-18T06:08:05;87.45;;;33.90;;
41305;SDS011;27051;50.376;19.152;2022-12-18T06:10:31;76.67;;;32.60;;
41305;SDS011;27051;50.376;19.152;2022-12-18T06:12:57;66.10;;;28.23;;
41305;SDS011;27051;50.376;19.152;2022-12-18T06:15:22;69.70;;;29.53;;
41305;SDS011;27051;50.376;19.152;2022-12-18T06:17:48;74.27;;;33.20;;
41305;SDS011;27051;50.376;19.152;2022-12-18T06:20:13;77.57;;;31.83;;
41305;SDS011;27051;50.376;19.152;2022-12-18T06:22:39;76.00;;;34.10;;
41305;SDS011;27051;50.376;19.152;2022-12-18T06:25:05;74.22;;;31.37;;
41305;SDS011;27051;50.376;19.152;2022-12-18T06:27:32;78.40;;;32.10;;
41305;SDS011;27051;50.376;19.152;2022-12-18T06:29:57;78.80;;;30.83;;
41305;SDS011;27051;50.376;19.152;2022-12-18T06:32:23;71.97;;;29.40;;
41305;SDS011;27051;50.376;19.152;2022-12-18T06:34:48;107.80;;;48.30;;
41305;SDS011;27051;50.376;19.152;2022-12-18T06:37:14;82.70;;;37.50;;
41305;SDS011;27051;50.376;19.152;2022-12-18T06:39:40;69.17;;;30.40;;
41305;SDS011;27051;50.376;19.152;2022-12-18T06:42:06;90.03;;;32.93;;
41305;SDS011;27051;50.376;19.152;2022-12-18T06:44:31;106.80;;;40.45;;
41305;SDS011;27051;50.376;19.152;2022-12-18T06:46:57;106.90;;;40.40;;
41305;SDS011;27051;50.376;19.152;2022-12-18T06:49:22;82.12;;;33.13;;
41305;SDS011;27051;50.376;19.152;2022-12-18T06:51:48;77.93;;;32.83;;
41305;SDS011;27051;50.376;19.152;2022-12-18T06:54:13;84.97;;;38.50;;
41305;SDS011;27051;50.376;19.152;2022-12-18T06:56:39;76.60;;;40.03;;
41305;SDS011;27051;50.376;19.152;2022-12-18T06:59:05;72.67;;;31.53;;
41305;SDS011;27051;50.376;19.152;2022-12-18T07:01:31;66.23;;;28.30;;
41305;SDS011;27051;50.376;19.152;2022-12-18T07:03:56;69.43;;;29.17;;
41305;SDS011;27051;50.376;19.152;2022-12-18T07:06:23;71.37;;;29.32;;
41305;SDS011;27051;50.376;19.152;2022-12-18T07:08:51;72.20;;;31.00;;
41305;SDS011;27051;50.376;19.152;2022-12-18T07:11:19;64.53;;;28.33;;
41305;SDS011;27051;50.376;19.152;2022-12-18T07:13:45;70.50;;;28.77;;
41305;SDS011;27051;50.376;19.152;2022-12-18T07:16:12;73.07;;;31.20;;
41305;SDS011;27051;50.376;19.152;2022-12-18T07:18:40;74.58;;;32.23;;
41305;SDS011;27051;50.376;19.152;2022-12-18T07:21:07;85.33;;;37.13;;
41305;SDS011;27051;50.376;19.152;2022-12-18T07:23:36;88.00;;;34.67;;
41305;SDS011;27051;50.376;19.152;2022-12-18T07:26:03;90.67;;;37.17;;
41305;SDS011;27051;50.376;19.152;2022-12-18T07:28:34;118.77;;;42.15;;
41305;SDS011;27051;50.376;19.152;2022-12-18T07:31:02;134.90;;;47.13;;
41305;SDS011;27051;50.376;19.152;2022-12-18T07:33:36;156.30;;;59.03;;
41305;SDS011;27051;50.376;19.152;2022-12-18T07:36:02;147.63;;;53.97;;
41305;SDS011;27051;50.376;19.152;2022-12-18T07:38:30;111.60;;;44.60;;
41305;SDS011;27051;50.376;19.152;2022-12-18T07:41:00;112.53;;;46.83;;
41305;SDS011;27051;50.376;19.152;2022-12-18T07:43:33;100.57;;;40.43;;
41305;SDS011;27051;50.376;19.152;2022-12-18T07:46:00;91.50;;;38.53;;
41305;SDS011;27051;50.376;19.152;2022-12-18T07:48:25;76.90;;;32.93;;
41305;SDS011;27051;50.376;19.152;2022-12-18T07:50:51;73.27;;;29.47;;
41305;SDS011;27051;50.376;19.152;2022-12-18T07:53:18;74.53;;;30.67;;
41305;SDS011;27051;50.376;19.152;2022-12-18T07:55:43;85.65;;;34.75;;
41305;SDS011;27051;50.376;19.152;2022-12-18T07:58:09;76.90;;;33.60;;
41305;SDS011;27051;50.376;19.152;2022-12-18T08:00:35;75.37;;;30.27;;
41305;SDS011;27051;50.376;19.152;2022-12-18T08:03:01;74.07;;;32.97;;
41305;SDS011;27051;50.376;19.152;2022-12-18T08:05:27;89.43;;;37.47;;
41305;SDS011;27051;50.376;19.152;2022-12-18T08:07:53;83.90;;;37.25;;
41305;SDS011;27051;50.376;19.152;2022-12-18T08:10:19;86.60;;;35.50;;
41305;SDS011;27051;50.376;19.152;2022-12-18T08:12:49;87.43;;;36.80;;
41305;SDS011;27051;50.376;19.152;2022-12-18T08:15:16;134.75;;;57.13;;
41305;SDS011;27051;50.376;19.152;2022-12-18T08:17:42;117.50;;;47.27;;
41305;SDS011;27051;50.376;19.152;2022-12-18T08:20:08;92.93;;;38.90;;
41305;SDS011;27051;50.376;19.152;2022-12-18T08:22:34;82.35;;;34.38;;
41305;SDS011;27051;50.376;19.152;2022-12-18T08:25:00;82.40;;;36.03;;
41305;SDS011;27051;50.376;19.152;2022-12-18T08:27:27;82.27;;;36.63;;
41305;SDS011;27051;50.376;19.152;2022-12-18T08:29:53;79.37;;;34.50;;
41305;SDS011;27051;50.376;19.152;2022-12-18T08:32:18;75.57;;;34.08;;
41305;SDS011;27051;50.376;19.152;2022-12-18T08:34:44;90.27;;;38.73;;
41305;SDS011;27051;50.376;19.152;2022-12-18T08:37:10;130.97;;;54.45;;
41305;SDS011;27051;50.376;19.152;2022-12-18T08:39:37;104.53;;;47.67;;
41305;SDS011;27051;50.376;19.152;2022-12-18T08:42:12;93.42;;;41.28;;
41305;SDS011;27051;50.376;19.152;2022-12-18T08:44:37;122.83;;;48.83;;
41305;SDS011;27051;50.376;19.152;2022-12-18T08:47:03;93.53;;;43.33;;
41305;SDS011;27051;50.376;19.152;2022-12-18T08:49:30;89.60;;;41.30;;
41305;SDS011;27051;50.376;19.152;2022-12-18T08:51:55;83.62;;;39.45;;
41305;SDS011;27051;50.376;19.152;2022-12-18T08:54:22;88.73;;;39.53;;
41305;SDS011;27051;50.376;19.152;2022-12-18T08:56:49;92.05;;;39.42;;
41305;SDS011;27051;50.376;19.152;2022-12-18T08:59:14;84.23;;;36.77;;
41305;SDS011;27051;50.376;19.152;2022-12-18T09:01:43;80.47;;;34.48;;
41305;SDS011;27051;50.376;19.152;2022-12-18T09:04:22;83.57;;;37.60;;
41305;SDS011;27051;50.376;19.152;2022-12-18T09:06:47;85.53;;;39.20;;
41305;SDS011;27051;50.376;19.152;2022-12-18T09:09:13;88.93;;;39.53;;
41305;SDS011;27051;50.376;19.152;2022-12-18T09:11:39;83.50;;;37.30;;
41305;SDS011;27051;50.376;19.152;2022-12-18T09:19:32;71.42;;;30.20;;
41305;SDS011;27051;50.376;19.152;2022-12-18T09:21:58;75.37;;;29.63;;
41305;SDS011;27051;50.376;19.152;2022-12-18T09:24:23;63.50;;;27.95;;
41305;SDS011;27051;50.376;19.152;2022-12-18T09:26:52;66.90;;;30.20;;
41305;SDS011;27051;50.376;19.152;2022-12-18T09:29:19;74.10;;;31.33;;
41305;SDS011;27051;50.376;19.152;2022-12-18T09:31:45;84.33;;;36.03;;
41305;SDS011;27051;50.376;19.152;2022-12-18T09:34:11;74.53;;;31.83;;
41305;SDS011;27051;50.376;19.152;2022-12-18T09:36:37;91.27;;;42.23;;
41305;SDS011;27051;50.376;19.152;2022-12-18T09:39:03;71.07;;;30.43;;
41305;SDS011;27051;50.376;19.152;2022-12-18T09:44:23;79.70;;;33.00;;
41305;SDS011;27051;50.376;19.152;2022-12-18T09:47:09;74.92;;;34.35;;
41305;SDS011;27051;50.376;19.152;2022-12-18T09:49:49;108.15;;;49.08;;
41305;SDS011;27051;50.376;19.152;2022-12-18T09:52:23;82.70;;;36.45;;
41305;SDS011;27051;50.376;19.152;2022-12-18T09:55:17;84.45;;;35.33;;
41305;SDS011;27051;50.376;19.152;2022-12-18T09:58:06;86.08;;;35.83;;
41305;SDS011;27051;50.376;19.152;2022-12-18T10:00:36;104.30;;;44.48;;
41305;SDS011;27051;50.376;19.152;2022-12-18T10:03:03;85.13;;;38.43;;
41305;SDS011;27051;50.376;19.152;2022-12-18T10:11:16;90.10;;;40.85;;
41305;SDS011;27051;50.376;19.152;2022-12-18T10:26:00;91.08;;;42.53;;
41305;SDS011;27051;50.376;19.152;2022-12-18T10:30:57;100.62;;;47.20;;
41305;SDS011;27051;50.376;19.152;2022-12-18T10:33:27;92.92;;;40.70;;
41305;SDS011;27051;50.376;19.152;2022-12-18T10:35:54;89.55;;;38.25;;
41305;SDS011;27051;50.376;19.152;2022-12-18T10:38:21;81.93;;;36.57;;
41305;SDS011;27051;50.376;19.152;2022-12-18T10:40:52;87.65;;;39.13;;
41305;SDS011;27051;50.376;19.152;2022-12-18T10:43:51;79.00;;;34.60;;
41305;SDS011;27051;50.376;19.152;2022-12-18T10:46:37;86.80;;;35.95;;
41305;SDS011;27051;50.376;19.152;2022-12-18T10:49:03;108.07;;;53.80;;
41305;SDS011;27051;50.376;19.152;2022-12-18T10:51:30;82.53;;;42.13;;
41305;SDS011;27051;50.376;19.152;2022-12-18T10:54:02;78.97;;;34.08;;
41305;SDS011;27051;50.376;19.152;2022-12-18T10:56:33;71.47;;;32.15;;
41305;SDS011;27051;50.376;19.152;2022-12-18T10:59:01;72.15;;;31.40;;
41305;SDS011;27051;50.376;19.152;2022-12-18T11:01:50;85.00;;;36.88;;
41305;SDS011;27051;50.376;19.152;2022-12-18T11:04:23;74.60;;;34.38;;
41305;SDS011;27051;50.376;19.152;2022-12-18T11:06:52;85.15;;;38.08;;
41305;SDS011;27051;50.376;19.152;2022-12-18T11:09:28;88.27;;;39.35;;
41305;SDS011;27051;50.376;19.152;2022-12-18T11:11:56;88.87;;;39.40;;
41305;SDS011;27051;50.376;19.152;2022-12-18T11:14:25;105.30;;;43.95;;
41305;SDS011;27051;50.376;19.152;2022-12-18T11:16:54;99.35;;;43.23;;
41305;SDS011;27051;50.376;19.152;2022-12-18T11:22:22;88.05;;;39.35;;
41305;SDS011;27051;50.376;19.152;2022-12-18T11:27:27;82.05;;;37.65;;
41305;SDS011;27051;50.376;19.152;2022-12-18T11:30:06;80.87;;;36.88;;
41305;SDS011;27051;50.376;19.152;2022-12-18T11:32:37;92.12;;;43.55;;
41305;SDS011;27051;50.376;19.152;2022-12-18T11:35:28;86.63;;;39.08;;
41305;SDS011;27051;50.376;19.152;2022-12-18T11:38:23;79.50;;;35.70;;
41305;SDS011;27051;50.376;19.152;2022-12-18T11:40:56;75.67;;;35.28;;
41305;SDS011;27051;50.376;19.152;2022-12-18T11:43:38;86.95;;;35.88;;
41305;SDS011;27051;50.376;19.152;2022-12-18T11:46:24;88.00;;;37.15;;
41305;SDS011;27051;50.376;19.152;2022-12-18T11:49:07;86.50;;;38.92;;
41305;SDS011;27051;50.376;19.152;2022-12-18T11:51:51;91.28;;;38.65;;
41305;SDS011;27051;50.376;19.152;2022-12-18T11:54:20;72.27;;;32.67;;
41305;SDS011;27051;50.376;19.152;2022-12-18T11:57:02;68.90;;;32.13;;
41305;SDS011;27051;50.376;19.152;2022-12-18T12:06:19;70.00;;;31.60;;
41305;SDS011;27051;50.376;19.152;2022-12-18T12:09:11;73.37;;;34.45;;
41305;SDS011;27051;50.376;19.152;2022-12-18T12:11:50;67.65;;;30.20;;
41305;SDS011;27051;50.376;19.152;2022-12-18T12:15:04;82.90;;;37.10;;
41305;SDS011;27051;50.376;19.152;2022-12-18T12:17:53;73.28;;;34.10;;
41305;SDS011;27051;50.376;19.152;2022-12-18T12:26:11;77.85;;;35.98;;
41305;SDS011;27051;50.376;19.152;2022-12-18T12:34:36;82.82;;;38.25;;
41305;SDS011;27051;50.376;19.152;2022-12-18T12:37:18;83.82;;;37.42;;
41305;SDS011;27051;50.376;19.152;2022-12-18T12:39:46;85.87;;;38.85;;
41305;SDS011;27051;50.376;19.152;2022-12-18T12:42:49;77.97;;;36.00;;
41305;SDS011;27051;50.376;19.152;2022-12-18T12:47:38;73.33;;;33.53;;
41305;SDS011;27051;50.376;19.152;2022-12-18T12:50:06;78.00;;;35.65;;
41305;SDS011;27051;50.376;19.152;2022-12-18T12:52:43;76.85;;;35.98;;
41305;SDS011;27051;50.376;19.152;2022-12-18T12:55:20;75.08;;;34.18;;
41305;SDS011;27051;50.376;19.152;2022-12-18T13:00:53;72.72;;;35.40;;
41305;SDS011;27051;50.376;19.152;2022-12-18T13:03:30;75.17;;;36.33;;
41305;SDS011;27051;50.376;19.152;2022-12-18T13:06:11;73.70;;;36.13;;
41305;SDS011;27051;50.376;19.152;2022-12-18T13:08:56;76.05;;;35.80;;
41305;SDS011;27051;50.376;19.152;2022-12-18T13:11:29;71.62;;;36.80;;
41305;SDS011;27051;50.376;19.152;2022-12-18T13:14:12;76.25;;;37.45;;
41305;SDS011;27051;50.376;19.152;2022-12-18T13:16:38;69.15;;;32.98;;
41305;SDS011;27051;50.376;19.152;2022-12-18T13:19:03;72.63;;;35.87;;
41305;SDS011;27051;50.376;19.152;2022-12-18T13:21:30;84.60;;;40.63;;
41305;SDS011;27051;50.376;19.152;2022-12-18T13:24:14;72.75;;;36.38;;
41305;SDS011;27051;50.376;19.152;2022-12-18T13:26:51;72.17;;;34.88;;
41305;SDS011;27051;50.376;19.152;2022-12-18T13:29:50;77.60;;;38.37;;
41305;SDS011;27051;50.376;19.152;2022-12-18T13:32:25;82.05;;;37.35;;
41305;SDS011;27051;50.376;19.152;2022-12-18T13:35:13;98.87;;;43.28;;
41305;SDS011;27051;50.376;19.152;2022-12-18T13:37:51;88.42;;;40.70;;
41305;SDS011;27051;50.376;19.152;2022-12-18T13:43:21;98.97;;;41.28;;
41305;SDS011;27051;50.376;19.152;2022-12-18T13:49:05;94.03;;;40.38;;
41305;SDS011;27051;50.376;19.152;2022-12-18T13:51:47;98.65;;;38.67;;
41305;SDS011;27051;50.376;19.152;2022-12-18T13:54:19;154.10;;;54.77;;
41305;SDS011;27051;50.376;19.152;2022-12-18T13:56:52;116.10;;;44.67;;
41305;SDS011;27051;50.376;19.152;2022-12-18T13:59:21;121.10;;;45.67;;
41305;SDS011;27051;50.376;19.152;2022-12-18T14:02:00;111.00;;;41.23;;
41305;SDS011;27051;50.376;19.152;2022-12-18T14:04:39;106.05;;;41.77;;
41305;SDS011;27051;50.376;19.152;2022-12-18T14:07:05;119.73;;;43.07;;
41305;SDS011;27051;50.376;19.152;2022-12-18T14:09:46;119.57;;;42.70;;
41305;SDS011;27051;50.376;19.152;2022-12-18T14:17:19;108.63;;;46.77;;
41305;SDS011;27051;50.376;19.152;2022-12-18T14:19:45;99.60;;;42.07;;
41305;SDS011;27051;50.376;19.152;2022-12-18T14:22:24;107.52;;;40.35;;
41305;SDS011;27051;50.376;19.152;2022-12-18T14:25:04;99.72;;;39.08;;
41305;SDS011;27051;50.376;19.152;2022-12-18T14:27:49;107.65;;;46.30;;
41305;SDS011;27051;50.376;19.152;2022-12-18T14:33:09;101.05;;;41.18;;
41305;SDS011;27051;50.376;19.152;2022-12-18T14:36:01;106.22;;;43.95;;
41305;SDS011;27051;50.376;19.152;2022-12-18T14:38:34;114.00;;;44.53;;
41305;SDS011;27051;50.376;19.152;2022-12-18T14:41:03;107.00;;;42.53;;
41305;SDS011;27051;50.376;19.152;2022-12-18T14:43:34;101.33;;;43.83;;
41305;SDS011;27051;50.376;19.152;2022-12-18T14:46:01;103.05;;;42.58;;
41305;SDS011;27051;50.376;19.152;2022-12-18T14:48:48;100.62;;;43.28;;
41305;SDS011;27051;50.376;19.152;2022-12-18T14:51:26;97.20;;;44.80;;
41305;SDS011;27051;50.376;19.152;2022-12-18T14:56:31;97.35;;;42.88;;
41305;SDS011;27051;50.376;19.152;2022-12-18T14:59:03;107.57;;;43.83;;
41305;SDS011;27051;50.376;19.152;2022-12-18T15:01:37;95.67;;;43.25;;
41305;SDS011;27051;50.376;19.152;2022-12-18T15:04:22;104.20;;;44.87;;
41305;SDS011;27051;50.376;19.152;2022-12-18T15:12:45;96.40;;;42.87;;
41305;SDS011;27051;50.376;19.152;2022-12-18T15:23:52;100.83;;;41.90;;
41305;SDS011;27051;50.376;19.152;2022-12-18T15:26:14;96.83;;;39.90;;
41305;SDS011;27051;50.376;19.152;2022-12-18T15:28:46;99.80;;;41.77;;
41305;SDS011;27051;50.376;19.152;2022-12-18T15:31:22;101.93;;;44.03;;
41305;SDS011;27051;50.376;19.152;2022-12-18T15:34:32;100.03;;;41.23;;
41305;SDS011;27051;50.376;19.152;2022-12-18T15:36:47;103.50;;;40.33;;
41305;SDS011;27051;50.376;19.152;2022-12-18T15:39:13;97.67;;;41.60;;
41305;SDS011;27051;50.376;19.152;2022-12-18T15:41:39;96.53;;;38.93;;
41305;SDS011;27051;50.376;19.152;2022-12-18T15:44:20;93.17;;;40.87;;
41305;SDS011;27051;50.376;19.152;2022-12-18T15:46:47;103.77;;;46.40;;
41305;SDS011;27051;50.376;19.152;2022-12-18T15:49:12;110.83;;;46.37;;
41305;SDS011;27051;50.376;19.152;2022-12-18T15:51:38;114.37;;;47.03;;
41305;SDS011;27051;50.376;19.152;2022-12-18T15:54:04;98.97;;;41.90;;
41305;SDS011;27051;50.376;19.152;2022-12-18T15:56:35;95.93;;;41.50;;
41305;SDS011;27051;50.376;19.152;2022-12-18T15:59:00;107.57;;;43.33;;
41305;SDS011;27051;50.376;19.152;2022-12-18T16:01:29;109.77;;;49.33;;
41305;SDS011;27051;50.376;19.152;2022-12-18T16:03:56;106.83;;;42.83;;
41305;SDS011;27051;50.376;19.152;2022-12-18T16:06:22;104.80;;;46.07;;
41305;SDS011;27051;50.376;19.152;2022-12-18T16:08:48;111.67;;;44.60;;
41305;SDS011;27051;50.376;19.152;2022-12-18T16:11:27;104.00;;;45.57;;
41305;SDS011;27051;50.376;19.152;2022-12-18T16:13:55;107.23;;;45.53;;
41305;SDS011;27051;50.376;19.152;2022-12-18T16:16:20;103.47;;;42.30;;
41305;SDS011;27051;50.376;19.152;2022-12-18T16:18:46;103.85;;;45.65;;
41305;SDS011;27051;50.376;19.152;2022-12-18T16:21:12;111.67;;;47.20;;
41305;SDS011;27051;50.376;19.152;2022-12-18T16:23:37;104.20;;;45.92;;